Time;durP1;ratioP1;P1;durP2;ratioP2;P2;SDS_P1;SDS_P2;PMS_P1;PMS_P2;Temp;Humidity;BMP_temperature;BMP_pressure;BME280_temperature;BME280_humidity;BME280_pressure;Samples;Min_cycle;Max_cycle;Signal;HPM_P1;HPM_P2
2023/05/27 00:03:53;;;;;;;;;;;;;;;10.32;79.49;102883.56;10586236;28;19934;-64
2023/05/27 00:08:55;;;;;;;;;;;;;;;10.09;80.65;102870.97;10579891;28;20019;-64
2023/05/27 00:13:57;;;;;;;;;;;;;;;10.28;81.45;102882.75;10587912;28;20302;-64
2023/05/27 00:19:00;;;;;;;;;;;;;;;10.26;81.68;102881.91;10581971;28;20374;-64
2023/05/27 00:24:03;;;;;;;;;;;;;;;10.21;82.14;102875.94;10588169;28;20420;-64
2023/05/27 00:29:05;;;;;;;;;;;;;;;10.09;82.42;102873.59;10585067;28;19923;-64
2023/05/27 00:34:07;;;;;;;;;;;;;;;10.40;81.17;102871.16;10581681;28;20310;-64
2023/05/27 00:39:10;;;;;;;;;;;;;;;9.98;84.15;102869.44;10592287;22;19927;-64
2023/05/27 00:44:12;;;;;;;;;;;;;;;9.96;84.14;102866.00;10587540;28;19924;-64
2023/05/27 00:49:14;;;;;;;;;;;;;;;9.81;83.99;102871.56;10568122;28;19930;-64
2023/05/27 00:54:17;;;;;;;;;;;;;;;9.82;84.50;102868.91;10568413;28;19924;-64
2023/05/27 00:59:19;;;;;;;;;;;;;;;9.83;86.33;102860.19;10572511;28;19928;-64
2023/05/27 01:04:21;;;;;;;;;;;;;;;9.57;86.63;102859.88;10584791;28;20270;-64
2023/05/27 01:09:42;;;;;;;;;;;;;;;9.62;85.78;102848.41;10585234;28;19924;-64
2023/05/27 01:14:45;;;;;;;;;;;;;;;9.47;86.76;102852.19;10572467;28;20295;-64
2023/05/27 01:19:47;;;;;;;;;;;;;;;9.55;88.03;102841.59;10585282;28;20378;-64
2023/05/27 01:24:50;;;;;;;;;;;;;;;9.63;87.71;102839.69;10583961;28;19931;-64
2023/05/27 01:29:52;;;;;;;;;;;;;;;9.32;87.94;102839.41;10584498;28;20007;-64
2023/05/27 01:35:01;;;;;;;;;;;;;;;9.19;89.22;102837.94;10566704;28;20409;-64
2023/05/27 01:40:05;;;;;;;;;;;;;;;9.17;90.53;102837.09;10584538;28;19924;-64
2023/05/27 01:45:07;;;;;;;;;;;;;;;9.06;91.35;102830.34;10564960;28;19924;-64
2023/05/27 01:50:10;;;;;;;;;;;;;;;9.19;91.46;102825.72;10582100;28;19923;-64
2023/05/27 01:55:12;;;;;;;;;;;;;;;8.93;92.49;102844.50;10582358;28;20263;-64
2023/05/27 02:00:15;;;;;;;;;;;;;;;8.93;91.76;102837.53;10584228;28;19930;-64
2023/05/27 02:05:17;;;;;;;;;;;;;;;9.17;90.84;102826.66;10582387;28;19924;-64
2023/05/27 02:10:20;;;;;;;;;;;;;;;9.07;90.88;102826.81;10583264;28;20117;-64
2023/05/27 02:15:23;;;;;;;;;;;;;;;8.79;92.83;102834.28;10565611;28;19924;-64
2023/05/27 02:20:25;;;;;;;;;;;;;;;8.96;91.82;102840.97;10581479;28;19963;-64
2023/05/27 02:25:28;;;;;;;;;;;;;;;8.70;93.59;102831.84;10565353;28;19924;-64
2023/05/27 02:30:30;;;;;;;;;;;;;;;8.47;96.11;102842.66;10583312;28;19928;-64
2023/05/27 02:35:33;;;;;;;;;;;;;;;8.41;96.11;102840.13;10563894;28;19924;-64
2023/05/27 02:40:35;;;;;;;;;;;;;;;8.78;92.53;102836.94;10582141;28;19924;-64
2023/05/27 02:45:37;;;;;;;;;;;;;;;8.38;94.95;102843.63;10579913;28;19923;-64
2023/05/27 02:50:40;;;;;;;;;;;;;;;8.47;94.83;102848.75;10562713;28;20394;-64
2023/05/27 02:55:42;;;;;;;;;;;;;;;8.19;96.65;102856.09;10580482;28;19923;-64
2023/05/27 03:00:44;;;;;;;;;;;;;;;8.17;96.43;102855.28;10582459;28;19923;-64
2023/05/27 03:05:47;;;;;;;;;;;;;;;8.11;98.65;102850.97;10581340;28;20015;-64
2023/05/27 03:10:50;;;;;;;;;;;;;;;7.89;99.80;102850.41;10581578;28;20275;-64
2023/05/27 03:15:54;;;;;;;;;;;;;;;8.13;97.69;102848.34;10581540;28;19923;-64
2023/05/27 03:20:56;;;;;;;;;;;;;;;8.08;96.77;102845.81;10580174;28;19924;-64
2023/05/27 03:25:58;;;;;;;;;;;;;;;7.91;98.94;102853.00;10580113;28;19924;-64
2023/05/27 03:31:01;;;;;;;;;;;;;;;7.85;98.83;102843.53;10581846;28;19973;-64
2023/05/27 03:36:03;;;;;;;;;;;;;;;7.97;99.44;102842.50;10562069;28;19996;-64
2023/05/27 03:41:06;;;;;;;;;;;;;;;8.03;98.44;102829.34;10580813;28;20305;-64
2023/05/27 03:46:10;;;;;;;;;;;;;;;7.87;99.97;102828.72;10581617;28;19928;-64
2023/05/27 03:51:12;;;;;;;;;;;;;;;7.86;100.00;102831.34;10580006;28;19924;-64
2023/05/27 03:56:15;;;;;;;;;;;;;;;8.10;98.76;102825.78;10580893;28;19923;-64
2023/05/27 04:01:17;;;;;;;;;;;;;;;7.85;100.00;102827.00;10580529;28;19928;-64
2023/05/27 04:06:19;;;;;;;;;;;;;;;7.76;100.00;102828.84;10579310;28;20416;-64
2023/05/27 04:11:22;;;;;;;;;;;;;;;7.67;100.00;102828.13;10588713;28;19981;-64
2023/05/27 04:16:24;;;;;;;;;;;;;;;7.85;100.00;102824.38;10587861;28;20035;-64
2023/05/27 04:21:27;;;;;;;;;;;;;;;7.87;100.00;102810.47;10586256;28;20294;-64
2023/05/27 04:26:29;;;;;;;;;;;;;;;8.06;100.00;102807.59;10588201;28;20018;-64
2023/05/27 04:31:31;;;;;;;;;;;;;;;8.27;100.00;102809.88;10587967;28;19930;-64
2023/05/27 04:36:34;;;;;;;;;;;;;;;8.27;100.00;102812.50;10586695;28;20014;-64
2023/05/27 04:41:36;;;;;;;;;;;;;;;8.42;100.00;102798.31;10568964;28;19968;-64
2023/05/27 04:46:39;;;;;;;;;;;;;;;8.40;100.00;102807.06;10586757;28;19966;-64
2023/05/27 04:51:41;;;;;;;;;;;;;;;8.53;100.00;102800.78;10566020;28;19923;-64
2023/05/27 04:56:43;;;;;;;;;;;;;;;8.76;100.00;102800.41;10585967;28;19924;-64
2023/05/27 05:02:09;;;;;;;;;;;;;;;8.70;100.00;102803.09;10568061;28;20289;-64
2023/05/27 05:07:11;;;;;;;;;;;;;;;8.99;99.32;102804.34;10585805;28;19923;-64
2023/05/27 05:12:13;;;;;;;;;;;;;;;9.03;99.44;102798.19;10585226;28;19966;-64
2023/05/27 05:17:15;;;;;;;;;;;;;;;8.88;100.00;102797.56;10566912;28;19923;-64
2023/05/27 05:22:22;;;;;;;;;;;;;;;9.19;98.70;102790.88;10585507;28;19928;-64
2023/05/27 05:27:25;;;;;;;;;;;;;;;9.12;100.00;102787.53;10583950;28;19924;-64
2023/05/27 05:32:27;;;;;;;;;;;;;;;9.49;95.58;102785.03;10585471;28;19970;-64
2023/05/27 05:37:29;;;;;;;;;;;;;;;9.38;97.52;102780.91;10583331;28;19946;-64
2023/05/27 05:42:32;;;;;;;;;;;;;;;9.57;97.71;102782.25;10585027;28;19923;-64
2023/05/27 05:47:34;;;;;;;;;;;;;;;9.70;97.16;102780.25;10566706;28;19923;-64
2023/05/27 05:52:36;;;;;;;;;;;;;;;9.65;98.26;102782.09;10582824;28;20386;-64
2023/05/27 05:57:38;;;;;;;;;;;;;;;9.71;97.61;102781.94;10584650;28;19924;-64
2023/05/27 06:02:41;;;;;;;;;;;;;;;9.80;98.50;102781.75;10582493;28;20366;-64
2023/05/27 06:07:43;;;;;;;;;;;;;;;10.09;95.60;102782.00;10576449;28;20294;-64
2023/05/27 06:12:45;;;;;;;;;;;;;;;10.14;97.24;102780.13;10579944;28;20003;-64
2023/05/27 06:17:47;;;;;;;;;;;;;;;10.10;96.74;102775.84;10583665;28;19923;-64
2023/05/27 06:22:50;;;;;;;;;;;;;;;10.68;94.45;102777.03;10582215;28;20293;-64
2023/05/27 06:27:52;;;;;;;;;;;;;;;10.79;95.66;102766.25;10582724;28;19931;-64
2023/05/27 06:32:54;;;;;;;;;;;;;;;10.75;93.47;102767.25;10582934;28;20019;-64
2023/05/27 06:37:58;;;;;;;;;;;;;;;11.05;92.27;102755.06;10579643;28;20002;-64
2023/05/27 06:43:00;;;;;;;;;;;;;;;10.89;93.04;102754.66;10580324;28;19928;-64
2023/05/27 06:48:02;;;;;;;;;;;;;;;11.36;91.02;102746.31;10580746;28;19924;-64
2023/05/27 06:53:05;;;;;;;;;;;;;;;11.72;88.38;102740.88;10571499;28;19924;-64
2023/05/27 06:58:07;;;;;;;;;;;;;;;11.87;88.49;102735.13;10571470;28;20363;-64
2023/05/27 07:03:09;;;;;;;;;;;;;;;12.26;86.12;102729.50;10564287;28;19924;-64
2023/05/27 07:08:12;;;;;;;;;;;;;;;12.53;84.09;102718.13;10560615;28;19970;-64
2023/05/27 07:13:15;;;;;;;;;;;;;;;12.85;83.99;102731.88;10568643;28;19930;-64
2023/05/27 07:18:17;;;;;;;;;;;;;;;13.37;80.96;102719.44;10577722;28;19936;-64
2023/05/27 07:23:19;;;;;;;;;;;;;;;13.91;77.66;102712.03;10569217;28;20018;-64
2023/05/27 07:28:22;;;;;;;;;;;;;;;14.22;77.29;102724.81;10559328;28;19931;-64
2023/05/27 07:33:24;;;;;;;;;;;;;;;14.76;76.06;102722.50;10571122;28;19934;-64
2023/05/27 07:38:26;;;;;;;;;;;;;;;15.52;73.63;102711.13;10580222;28;20454;-63
2023/05/27 07:43:28;;;;;;;;;;;;;;;15.39;71.54;102706.41;10586243;28;19930;-63
2023/05/27 07:48:31;;;;;;;;;;;;;;;14.89;69.05;102696.44;10588987;28;20413;-64
2023/05/27 07:53:34;;;;;;;;;;;;;;;15.27;70.03;102700.88;10589542;28;19924;-64
2023/05/27 07:58:36;;;;;;;;;;;;;;;15.22;71.63;102698.44;10588665;28;19924;-64
2023/05/27 08:03:38;;;;;;;;;;;;;;;16.33;68.72;102683.31;10588480;28;20382;-64
2023/05/27 08:08:41;;;;;;;;;;;;;;;15.90;70.85;102684.66;10588948;28;19927;-64
2023/05/27 08:13:43;;;;;;;;;;;;;;;16.97;66.65;102669.44;10588736;28;19924;-64
2023/05/27 08:18:45;;;;;;;;;;;;;;;17.47;65.41;102663.09;10588705;28;19923;-64
2023/05/27 08:23:47;;;;;;;;;;;;;;;18.45;64.62;102655.59;10587548;28;19923;-64
2023/05/27 08:28:49;;;;;;;;;;;;;;;17.53;63.40;102644.19;10587388;28;20267;-64
2023/05/27 08:33:52;;;;;;;;;;;;;;;17.58;61.12;102644.78;10587440;28;19924;-68
2023/05/27 08:38:54;;;;;;;;;;;;;;;18.61;60.70;102637.81;10587356;28;19938;-65
2023/05/27 08:43:56;;;;;;;;;;;;;;;19.36;61.05;102626.00;10587439;28;19931;-65
2023/05/27 08:49:13;;;;;;;;;;;;;;;18.03;59.98;102621.00;10587835;28;20416;-66
2023/05/27 08:54:15;;;;;;;;;;;;;;;18.28;61.35;102612.41;10567152;28;20248;-65
2023/05/27 08:59:17;;;;;;;;;;;;;;;19.05;60.13;102604.94;10587304;28;20022;-64
2023/05/27 09:04:19;;;;;;;;;;;;;;;19.27;58.53;102592.94;10586723;28;19931;-65
2023/05/27 09:09:22;;;;;;;;;;;;;;;19.26;58.74;102591.22;10585756;28;20332;-65
2023/05/27 09:14:24;;;;;;;;;;;;;;;20.31;57.20;102586.78;10568410;28;19923;-67
2023/05/27 09:19:26;;;;;;;;;;;;;;;18.68;58.98;102586.06;10571874;28;19924;-67
2023/05/27 09:24:28;;;;;;;;;;;;;;;20.02;57.67;102585.22;10585095;28;19924;-67
2023/05/27 09:29:32;;;;;;;;;;;;;;;20.03;57.59;102581.59;10567627;28;19927;-67
2023/05/27 09:34:40;;;;;;;;;;;;;;;20.58;56.12;102573.34;10567612;28;20026;-67
2023/05/27 09:39:43;;;;;;;;;;;;;;;21.57;55.42;102579.44;10584669;28;19924;-68
2023/05/27 09:44:48;;;;;;;;;;;;;;;21.31;53.25;102571.56;10585019;28;20031;-68
2023/05/27 09:49:51;;;;;;;;;;;;;;;21.58;52.62;102560.66;10566902;28;20022;-68
2023/05/27 09:54:53;;;;;;;;;;;;;;;20.75;51.49;102562.34;10584517;28;19924;-68
2023/05/27 09:59:58;;;;;;;;;;;;;;;21.80;51.96;102549.19;10565337;28;19923;-68
2023/05/27 10:05:00;;;;;;;;;;;;;;;21.00;51.33;102549.91;10557974;28;20299;-68
2023/05/27 10:10:04;;;;;;;;;;;;;;;20.11;53.29;102535.03;10566024;28;19931;-68
2023/05/27 10:15:07;;;;;;;;;;;;;;;21.30;49.86;102532.56;10565175;28;19924;-68
2023/05/27 10:20:09;;;;;;;;;;;;;;;21.47;50.75;102516.19;10582011;28;19930;-68
2023/05/27 10:25:13;;;;;;;;;;;;;;;22.98;50.08;102514.84;10579675;28;19973;-68
2023/05/27 10:30:15;;;;;;;;;;;;;;;22.93;47.67;102514.41;10583233;28;20010;-65
2023/05/27 10:35:17;;;;;;;;;;;;;;;22.11;48.33;102513.91;10582512;28;20336;-65
2023/05/27 10:40:26;;;;;;;;;;;;;;;24.35;47.30;102499.56;10564235;28;19924;-66
2023/05/27 10:45:31;;;;;;;;;;;;;;;24.64;45.91;102502.31;10582842;28;19923;-65
2023/05/27 10:50:34;;;;;;;;;;;;;;;24.17;47.76;102494.03;10568827;28;19924;-66
2023/05/27 10:55:36;;;;;;;;;;;;;;;25.80;45.10;102480.84;10564613;28;19924;-66
2023/05/27 11:00:38;;;;;;;;;;;;;;;24.51;44.67;102474.97;10564256;28;19923;-66
2023/05/27 11:05:40;;;;;;;;;;;;;;;25.17;43.82;102468.06;10562925;28;19927;-65
2023/05/27 11:10:43;;;;;;;;;;;;;;;24.35;41.25;102459.44;10563448;28;19923;-66
2023/05/27 11:15:45;;;;;;;;;;;;;;;25.78;41.69;102446.13;10564476;28;20030;-66
2023/05/27 11:20:47;;;;;;;;;;;;;;;25.58;44.42;102445.38;10572373;28;19963;-66
2023/05/27 11:25:50;;;;;;;;;;;;;;;25.50;42.65;102445.28;10589989;28;19928;-66
2023/05/27 11:30:57;;;;;;;;;;;;;;;25.50;43.41;102422.97;10571511;28;19998;-66
2023/05/27 11:36:06;;;;;;;;;;;;;;;25.96;45.21;102426.59;10572070;28;19923;-66
2023/05/27 11:41:08;;;;;;;;;;;;;;;26.38;41.49;102422.47;10554311;28;19924;-66
2023/05/27 11:46:10;;;;;;;;;;;;;;;25.51;43.84;102405.91;10589537;28;19934;-66
2023/05/27 11:51:13;;;;;;;;;;;;;;;26.28;39.50;102396.56;10589099;28;19928;-66
2023/05/27 11:56:15;;;;;;;;;;;;;;;24.65;41.66;102393.41;10588801;28;19924;-66
2023/05/27 12:01:17;;;;;;;;;;;;;;;23.84;41.73;102389.06;10571133;28;19924;-66
2023/05/27 12:06:20;;;;;;;;;;;;;;;26.13;40.07;102368.56;10588954;28;20010;-66
2023/05/27 12:11:22;;;;;;;;;;;;;;;25.08;40.19;102365.22;10588198;28;19939;-66
2023/05/27 12:16:24;;;;;;;;;;;;;;;24.61;41.29;102360.72;10570703;28;19931;-66
2023/05/27 12:21:26;;;;;;;;;;;;;;;26.27;41.41;102349.22;10588262;28;19946;-66
2023/05/27 12:26:29;;;;;;;;;;;;;;;26.52;39.96;102338.72;10588453;28;19930;-66
2023/05/27 12:31:31;;;;;;;;;;;;;;;27.19;39.07;102327.41;10587830;28;19934;-66
2023/05/27 12:36:33;;;;;;;;;;;;;;;27.62;39.31;102333.63;10569075;28;19931;-66
2023/05/27 12:41:36;;;;;;;;;;;;;;;27.81;37.21;102324.44;10584789;28;20018;-65
2023/05/27 12:46:38;;;;;;;;;;;;;;;26.27;39.40;102332.28;10586747;28;19946;-66
2023/05/27 12:51:40;;;;;;;;;;;;;;;27.49;37.03;102320.66;10587293;28;19967;-66
2023/05/27 12:56:43;;;;;;;;;;;;;;;25.51;38.61;102309.38;10516350;22;20390;-67
2023/05/27 13:01:45;;;;;;;;;;;;;;;27.27;36.12;102300.53;10482269;28;20015;-67
2023/05/27 13:06:47;;;;;;;;;;;;;;;28.63;34.82;102296.72;10501554;28;19931;-67
2023/05/27 13:11:49;;;;;;;;;;;;;;;27.25;37.07;102284.56;10481611;28;20303;-67
2023/05/27 13:16:53;;;;;;;;;;;;;;;27.36;37.43;102282.63;10502424;28;20319;-67
2023/05/27 13:21:55;;;;;;;;;;;;;;;27.92;36.76;102281.06;10502286;28;20288;-68
2023/05/27 13:26:57;;;;;;;;;;;;;;;27.48;37.03;102269.72;10484244;28;20299;-67
2023/05/27 13:32:00;;;;;;;;;;;;;;;26.92;38.37;102270.16;10502276;28;20019;-67
2023/05/27 13:37:02;;;;;;;;;;;;;;;27.73;36.08;102262.53;10501642;28;19929;-67
2023/05/27 13:42:06;;;;;;;;;;;;;;;28.14;36.18;102247.28;10500629;28;20248;-67
2023/05/27 13:47:08;;;;;;;;;;;;;;;27.51;39.16;102251.41;10501279;28;19936;-67
2023/05/27 13:52:10;;;;;;;;;;;;;;;27.72;36.04;102245.56;10501509;28;19931;-67
2023/05/27 13:57:13;;;;;;;;;;;;;;;26.41;34.88;102231.53;10501277;28;19928;-67
2023/05/27 14:02:15;;;;;;;;;;;;;;;27.85;35.98;102228.91;10501170;28;19931;-67
2023/05/27 14:07:17;;;;;;;;;;;;;;;27.70;36.01;102230.56;10541468;28;19942;-67
2023/05/27 14:12:19;;;;;;;;;;;;;;;28.18;35.84;102207.38;10523500;28;19924;-67
2023/05/27 14:17:22;;;;;;;;;;;;;;;28.30;35.27;102213.25;10542848;28;19925;-67
2023/05/27 14:22:24;;;;;;;;;;;;;;;27.52;37.25;102199.28;10541811;28;19924;-67
2023/05/27 14:27:26;;;;;;;;;;;;;;;26.83;36.16;102196.72;10530681;28;20374;-73
2023/05/27 14:32:29;;;;;;;;;;;;;;;26.96;37.33;102201.63;10533917;28;20270;-74
2023/05/27 14:37:31;;;;;;;;;;;;;;;26.27;34.92;102190.00;10506259;28;20014;-74
2023/05/27 14:42:33;;;;;;;;;;;;;;;27.23;35.13;102186.25;10533504;28;20294;-73
2023/05/27 14:47:36;;;;;;;;;;;;;;;26.75;35.40;102179.72;10541664;28;20007;-73
2023/05/27 14:52:38;;;;;;;;;;;;;;;26.77;35.97;102183.09;10540578;28;20390;-74
2023/05/27 14:57:40;;;;;;;;;;;;;;;27.67;34.93;102169.88;10525270;28;20362;-73
2023/05/27 15:02:43;;;;;;;;;;;;;;;27.87;35.71;102173.03;10522157;28;20016;-73
2023/05/27 15:07:45;;;;;;;;;;;;;;;27.74;34.78;102170.03;10520236;28;20010;-75
2023/05/27 15:12:47;;;;;;;;;;;;;;;27.72;35.94;102174.75;10540988;28;19924;-74
2023/05/27 15:17:50;;;;;;;;;;;;;;;27.88;35.61;102171.22;10540616;28;19924;-74
2023/05/27 15:22:52;;;;;;;;;;;;;;;27.49;35.57;102159.28;10538198;28;20352;-74
2023/05/27 15:27:54;;;;;;;;;;;;;;;27.73;35.55;102149.53;10538783;28;20422;-73
2023/05/27 15:32:57;;;;;;;;;;;;;;;28.12;36.32;102138.91;10562188;28;19924;-73
2023/05/27 15:37:59;;;;;;;;;;;;;;;26.98;37.76;102148.59;10562928;28;19947;-73
2023/05/27 15:43:02;;;;;;;;;;;;;;;27.59;37.14;102134.91;10581063;28;20263;-73
2023/05/27 15:48:05;;;;;;;;;;;;;;;27.28;35.27;102132.00;10581099;28;20366;-73
2023/05/27 15:53:07;;;;;;;;;;;;;;;27.12;36.39;102130.97;10563139;28;20000;-73
2023/05/27 15:58:09;;;;;;;;;;;;;;;26.30;36.91;102130.66;10537465;28;19925;-72
2023/05/27 16:03:12;;;;;;;;;;;;;;;27.05;36.66;102128.09;10564394;28;19924;-72
2023/05/27 16:08:14;;;;;;;;;;;;;;;26.54;39.15;102123.72;10570228;28;20370;-73
2023/05/27 16:13:16;;;;;;;;;;;;;;;26.82;36.83;102118.97;10588722;28;19924;-73
2023/05/27 16:18:19;;;;;;;;;;;;;;;26.60;37.73;102115.00;10570278;28;19965;-73
2023/05/27 16:23:21;;;;;;;;;;;;;;;26.33;38.00;102107.00;10569462;28;19923;-73
2023/05/27 16:28:24;;;;;;;;;;;;;;;25.79;38.78;102095.59;10587599;28;19923;-73
2023/05/27 16:33:26;;;;;;;;;;;;;;;26.16;38.42;102104.38;10569750;28;19924;-73
2023/05/27 16:38:28;;;;;;;;;;;;;;;25.68;39.40;102088.63;10587245;28;19930;-73
2023/05/27 16:43:30;;;;;;;;;;;;;;;25.46;39.50;102087.28;10569712;28;19924;-73
2023/05/27 16:48:32;;;;;;;;;;;;;;;25.36;40.23;102090.06;10587550;28;19935;-73
2023/05/27 16:53:35;;;;;;;;;;;;;;;24.74;38.92;102081.03;10586965;28;19930;-73
2023/05/27 16:58:37;;;;;;;;;;;;;;;24.79;39.70;102076.91;10587029;28;20019;-73
2023/05/27 17:03:39;;;;;;;;;;;;;;;24.86;40.67;102074.47;10551758;28;19924;-73
2023/05/27 17:08:42;;;;;;;;;;;;;;;23.65;41.25;102066.31;10568898;28;19931;-73
2023/05/27 17:13:45;;;;;;;;;;;;;;;24.10;41.07;102072.84;10584696;28;19978;-73
2023/05/27 17:18:47;;;;;;;;;;;;;;;24.50;40.47;102065.50;10586315;28;20023;-73
2023/05/27 17:23:51;;;;;;;;;;;;;;;24.28;41.95;102065.75;10568222;28;20011;-73
2023/05/27 17:28:53;;;;;;;;;;;;;;;24.35;42.66;102063.31;10585930;28;19928;-73
2023/05/27 17:33:55;;;;;;;;;;;;;;;24.00;43.79;102064.03;10585688;28;19930;-73
2023/05/27 17:38:58;;;;;;;;;;;;;;;23.68;44.57;102063.34;10585479;28;19927;-73
2023/05/27 17:44:00;;;;;;;;;;;;;;;23.59;45.12;102061.56;10567198;28;19927;-73
2023/05/27 17:49:02;;;;;;;;;;;;;;;23.19;46.00;102049.22;10566326;28;20404;-73
2023/05/27 17:54:04;;;;;;;;;;;;;;;23.18;46.27;102050.19;10563294;28;19924;-73
2023/05/27 17:59:07;;;;;;;;;;;;;;;22.71;45.84;102042.81;10565856;28;19927;-73
2023/05/27 18:04:09;;;;;;;;;;;;;;;22.10;46.48;102051.69;10581497;28;19960;-73
2023/05/27 18:09:12;;;;;;;;;;;;;;;22.20;46.41;102047.25;10551124;28;19924;-72
2023/05/27 18:14:14;;;;;;;;;;;;;;;22.18;48.59;102048.38;10571333;28;19928;-73
2023/05/27 18:19:16;;;;;;;;;;;;;;;22.24;48.85;102053.16;10582901;28;19931;-73
2023/05/27 18:24:19;;;;;;;;;;;;;;;21.79;50.62;102059.69;10533694;28;19924;-72
2023/05/27 18:29:21;;;;;;;;;;;;;;;21.56;51.97;102055.44;10541046;28;19946;-73
2023/05/27 18:34:23;;;;;;;;;;;;;;;21.39;53.13;102059.50;10521856;28;19928;-73
2023/05/27 18:39:26;;;;;;;;;;;;;;;21.05;55.47;102044.50;10560143;28;19924;-73
2023/05/27 18:44:28;;;;;;;;;;;;;;;20.55;56.64;102044.09;10582405;28;20289;-73
2023/05/27 18:49:30;;;;;;;;;;;;;;;20.18;56.86;102050.53;10572030;28;19930;-73
2023/05/27 18:54:32;;;;;;;;;;;;;;;20.07;58.24;102055.00;10548174;28;20002;-73
2023/05/27 18:59:35;;;;;;;;;;;;;;;19.76;59.18;102052.91;10547166;28;20390;-73
2023/05/27 19:04:37;;;;;;;;;;;;;;;19.46;60.11;102058.69;10541438;28;19924;-73
2023/05/27 19:09:41;;;;;;;;;;;;;;;19.06;62.35;102059.88;10542764;28;19970;-73
2023/05/27 19:14:43;;;;;;;;;;;;;;;18.77;63.20;102063.75;10582265;28;19961;-73
2023/05/27 19:19:46;;;;;;;;;;;;;;;18.64;63.17;102064.63;10547917;28;20325;-73
2023/05/27 19:24:49;;;;;;;;;;;;;;;18.49;63.49;102066.59;10543611;28;20331;-73
2023/05/27 19:29:51;;;;;;;;;;;;;;;18.17;64.57;102068.81;10561138;28;19931;-73
2023/05/27 19:34:53;;;;;;;;;;;;;;;18.17;64.47;102068.81;10556541;28;19928;-72
2023/05/27 19:39:56;;;;;;;;;;;;;;;17.87;65.15;102069.13;10568609;28;19930;-72
2023/05/27 19:45:00;;;;;;;;;;;;;;;17.58;66.25;102074.56;10588737;28;21262;-72
2023/05/27 19:50:02;;;;;;;;;;;;;;;17.37;67.21;102080.34;10559902;28;20270;-72
2023/05/27 19:55:05;;;;;;;;;;;;;;;17.15;68.11;102078.25;10554452;28;19930;-72
2023/05/27 20:00:09;;;;;;;;;;;;;;;16.93;68.48;102080.56;10589415;28;19930;-72
2023/05/27 20:05:11;;;;;;;;;;;;;;;16.82;68.58;102068.84;10552920;28;19924;-72
2023/05/27 20:10:13;;;;;;;;;;;;;;;16.48;69.74;102076.28;10577229;28;19970;-72
2023/05/27 20:15:16;;;;;;;;;;;;;;;16.53;69.73;102082.13;10570841;28;19924;-72
2023/05/27 20:20:20;;;;;;;;;;;;;;;16.37;70.52;102085.81;10542727;28;19930;-72
2023/05/27 20:25:23;;;;;;;;;;;;;;;16.13;71.14;102089.00;10550962;28;19927;-72
2023/05/27 20:30:25;;;;;;;;;;;;;;;15.83;73.09;102076.69;10572220;28;20290;-72
2023/05/27 20:35:28;;;;;;;;;;;;;;;15.91;72.68;102081.53;10570016;28;19924;-72
2023/05/27 20:40:31;;;;;;;;;;;;;;;15.55;73.21;102082.69;10587980;28;19931;-72
2023/05/27 20:45:33;;;;;;;;;;;;;;;15.49;74.41;102081.28;10541246;28;20329;-72
2023/05/27 20:50:35;;;;;;;;;;;;;;;15.47;74.89;102085.78;10554284;28;19923;-72
2023/05/27 20:55:38;;;;;;;;;;;;;;;15.18;76.08;102075.13;10583448;28;19930;-72
2023/05/27 21:00:40;;;;;;;;;;;;;;;15.22;75.56;102068.72;10546996;28;19931;-72
2023/05/27 21:05:43;;;;;;;;;;;;;;;15.09;76.25;102062.44;10586875;28;19959;-71
2023/05/27 21:10:45;;;;;;;;;;;;;;;15.08;76.15;102060.75;10561737;28;19924;-72
2023/05/27 21:15:47;;;;;;;;;;;;;;;14.98;76.19;102060.41;10573157;28;19924;-72
2023/05/27 21:20:49;;;;;;;;;;;;;;;14.78;77.44;102058.03;10561288;28;19924;-71
2023/05/27 21:25:52;;;;;;;;;;;;;;;14.88;75.93;102058.34;10532973;28;19932;-71
2023/05/27 21:30:54;;;;;;;;;;;;;;;14.59;78.00;102072.22;10552887;28;19924;-71
2023/05/27 21:35:57;;;;;;;;;;;;;;;14.43;79.03;102072.16;10545985;28;20285;-71
2023/05/27 21:40:59;;;;;;;;;;;;;;;14.33;80.63;102067.47;10578983;28;20290;-72
2023/05/27 21:46:02;;;;;;;;;;;;;;;14.33;80.70;102067.47;10566541;28;20279;-72
2023/05/27 21:51:04;;;;;;;;;;;;;;;14.53;78.34;102066.41;10542011;28;20302;-71
2023/05/27 21:56:07;;;;;;;;;;;;;;;14.19;80.68;102057.63;10499996;28;19972;-71
2023/05/27 22:01:13;;;;;;;;;;;;;;;14.18;81.50;102059.41;10498768;28;19930;-71
2023/05/27 22:06:15;;;;;;;;;;;;;;;14.17;81.11;102068.28;10498713;28;19931;-71
2023/05/27 22:11:17;;;;;;;;;;;;;;;13.94;82.68;102059.78;10496303;28;19931;-71
2023/05/27 22:16:20;;;;;;;;;;;;;;;13.86;82.82;102061.09;10515003;28;19930;-71
2023/05/27 22:21:22;;;;;;;;;;;;;;;13.80;83.48;102049.13;10499633;28;19924;-71
2023/05/27 22:26:31;;;;;;;;;;;;;;;13.84;83.15;102049.81;10481818;28;19924;-71
2023/05/27 22:31:33;;;;;;;;;;;;;;;13.77;82.71;102054.53;10499389;28;19928;-71
2023/05/27 22:36:35;;;;;;;;;;;;;;;13.66;83.49;102051.56;10481521;28;19924;-71
2023/05/27 22:41:38;;;;;;;;;;;;;;;13.59;83.76;102042.31;10496943;28;19931;-72
2023/05/27 22:46:40;;;;;;;;;;;;;;;13.54;84.36;102045.16;10479150;28;19932;-71
2023/05/27 22:51:42;;;;;;;;;;;;;;;13.54;84.21;102048.63;10512449;28;19974;-71
2023/05/27 22:56:44;;;;;;;;;;;;;;;13.48;84.38;102053.34;10521932;28;19928;-71
2023/05/27 23:01:47;;;;;;;;;;;;;;;13.38;85.50;102043.28;10581944;28;20290;-71
2023/05/27 23:06:49;;;;;;;;;;;;;;;13.22;86.31;102029.16;10562384;28;19924;-71
2023/05/27 23:11:51;;;;;;;;;;;;;;;13.26;87.08;102029.84;10577794;28;19924;-71
2023/05/27 23:16:55;;;;;;;;;;;;;;;13.16;86.84;102030.31;10555876;28;19932;-71
2023/05/27 23:21:57;;;;;;;;;;;;;;;13.07;86.58;102025.47;10570190;28;20379;-70
2023/05/27 23:27:01;;;;;;;;;;;;;;;13.00;87.12;102014.41;10575933;28;20032;-71
2023/05/27 23:32:03;;;;;;;;;;;;;;;12.97;86.27;102017.19;10546681;28;20506;-70
2023/05/27 23:37:05;;;;;;;;;;;;;;;12.91;87.46;102006.13;10569509;28;19924;-71
2023/05/27 23:42:10;;;;;;;;;;;;;;;13.16;85.43;102001.38;10581643;28;19924;-72
2023/05/27 23:47:12;;;;;;;;;;;;;;;12.90;86.70;101993.91;10571309;28;20397;-72
2023/05/27 23:52:14;;;;;;;;;;;;;;;12.77;87.48;101983.97;10581018;28;20022;-72
2023/05/27 23:57:17;;;;;;;;;;;;;;;12.97;87.03;101983.00;10554237;28;20007;-72
